sensor_id;sensor_type;location;lat;lon;timestamp;pressure;altitude;pressure_sealevel;temperature
65765;BMP180;52915;53.718;19.946;2023-05-10T00:03:28;101034.80;;;7.20
65765;BMP180;52915;53.718;19.946;2023-05-10T00:22:59;101027.60;;;6.90
65765;BMP180;52915;53.718;19.946;2023-05-10T00:42:14;101011.60;;;6.70
65765;BMP180;52915;53.718;19.946;2023-05-10T01:07:27;101013.00;;;6.40
65765;BMP180;52915;53.718;19.946;2023-05-10T01:19:40;101007.20;;;6.10
65765;BMP180;52915;53.718;19.946;2023-05-10T01:44:51;100991.60;;;5.80
65765;BMP180;52915;53.718;19.946;2023-05-10T01:50:27;100993.40;;;5.70
65765;BMP180;52915;53.718;19.946;2023-05-10T01:55:41;100993.20;;;5.70
65765;BMP180;52915;53.718;19.946;2023-05-10T02:23:17;100995.80;;;5.40
65765;BMP180;52915;53.718;19.946;2023-05-10T02:36:15;100999.20;;;5.40
65765;BMP180;52915;53.718;19.946;2023-05-10T02:42:16;100994.00;;;5.40
65765;BMP180;52915;53.718;19.946;2023-05-10T02:47:56;100989.80;;;5.36
65765;BMP180;52915;53.718;19.946;2023-05-10T02:53:09;100987.40;;;5.32
65765;BMP180;52915;53.718;19.946;2023-05-10T02:58:14;100982.80;;;5.30
65765;BMP180;52915;53.718;19.946;2023-05-10T03:10:29;100988.00;;;5.30
65765;BMP180;52915;53.718;19.946;2023-05-10T03:15:37;100984.80;;;5.34
65765;BMP180;52915;53.718;19.946;2023-05-10T03:20:56;100986.60;;;5.40
65765;BMP180;52915;53.718;19.946;2023-05-10T03:40:25;100973.80;;;5.70
65765;BMP180;52915;53.718;19.946;2023-05-10T03:52:32;100970.80;;;6.08
65765;BMP180;52915;53.718;19.946;2023-05-10T03:57:37;100972.60;;;6.22
65765;BMP180;52915;53.718;19.946;2023-05-10T04:03:33;100972.60;;;6.40
65765;BMP180;52915;53.718;19.946;2023-05-10T04:08:45;100976.00;;;6.60
65765;BMP180;52915;53.718;19.946;2023-05-10T04:13:49;100974.40;;;6.80
65765;BMP180;52915;53.718;19.946;2023-05-10T04:18:53;100975.00;;;7.00
65765;BMP180;52915;53.718;19.946;2023-05-10T04:31:25;100981.80;;;7.46
65765;BMP180;52915;53.718;19.946;2023-05-10T04:36:56;100978.00;;;7.64
65765;BMP180;52915;53.718;19.946;2023-05-10T04:42:24;100981.80;;;7.90
65765;BMP180;52915;53.718;19.946;2023-05-10T04:58:33;100964.20;;;8.84
65765;BMP180;52915;53.718;19.946;2023-05-10T05:14:19;100960.20;;;9.84
65765;BMP180;52915;53.718;19.946;2023-05-10T05:19:31;100965.40;;;10.00
65765;BMP180;52915;53.718;19.946;2023-05-10T05:24:37;100963.80;;;10.24
65765;BMP180;52915;53.718;19.946;2023-05-10T05:29:41;100957.80;;;10.60
65765;BMP180;52915;53.718;19.946;2023-05-10T05:34:45;100963.60;;;10.90
65765;BMP180;52915;53.718;19.946;2023-05-10T05:47:55;100961.20;;;11.68
65765;BMP180;52915;53.718;19.946;2023-05-10T05:53:00;100970.20;;;12.00
65765;BMP180;52915;53.718;19.946;2023-05-10T06:17:49;100961.20;;;13.60
65765;BMP180;52915;53.718;19.946;2023-05-10T06:29:39;100963.00;;;14.18
65765;BMP180;52915;53.718;19.946;2023-05-10T06:34:43;100963.20;;;14.40
65765;BMP180;52915;53.718;19.946;2023-05-10T06:39:48;100963.20;;;14.70
65765;BMP180;52915;53.718;19.946;2023-05-10T06:45:36;100962.20;;;15.00
65765;BMP180;52915;53.718;19.946;2023-05-10T06:51:05;100957.80;;;15.30
65765;BMP180;52915;53.718;19.946;2023-05-10T06:56:33;100959.00;;;15.70
65765;BMP180;52915;53.718;19.946;2023-05-10T07:02:03;100960.00;;;16.10
65765;BMP180;52915;53.718;19.946;2023-05-10T07:07:06;100957.20;;;16.40
65765;BMP180;52915;53.718;19.946;2023-05-10T07:12:14;100957.80;;;16.64
65765;BMP180;52915;53.718;19.946;2023-05-10T07:17:24;100953.00;;;16.84
65765;BMP180;52915;53.718;19.946;2023-05-10T07:22:52;100961.40;;;17.10
65765;BMP180;52915;53.718;19.946;2023-05-10T07:28:21;100960.60;;;17.40
65765;BMP180;52915;53.718;19.946;2023-05-10T07:33:25;100960.20;;;17.60
65765;BMP180;52915;53.718;19.946;2023-05-10T07:38:54;100962.20;;;17.60
65765;BMP180;52915;53.718;19.946;2023-05-10T07:50:11;100954.60;;;17.90
65765;BMP180;52915;53.718;19.946;2023-05-10T07:55:22;100962.40;;;18.10
65765;BMP180;52915;53.718;19.946;2023-05-10T08:00:56;100962.00;;;18.10
65765;BMP180;52915;53.718;19.946;2023-05-10T08:06:17;100960.80;;;18.30
65765;BMP180;52915;53.718;19.946;2023-05-10T08:11:48;100963.40;;;18.30
65765;BMP180;52915;53.718;19.946;2023-05-10T08:17:18;100957.20;;;18.30
65765;BMP180;52915;53.718;19.946;2023-05-10T08:23:02;100960.00;;;18.40
65765;BMP180;52915;53.718;19.946;2023-05-10T08:29:01;100947.00;;;18.40
65765;BMP180;52915;53.718;19.946;2023-05-10T08:34:33;100955.20;;;18.50
65765;BMP180;52915;53.718;19.946;2023-05-10T08:39:37;100953.80;;;18.50
65765;BMP180;52915;53.718;19.946;2023-05-10T08:44:57;100964.60;;;18.70
65765;BMP180;52915;53.718;19.946;2023-05-10T08:50:02;100960.60;;;18.80
65765;BMP180;52915;53.718;19.946;2023-05-10T08:55:16;100964.40;;;18.90
65765;BMP180;52915;53.718;19.946;2023-05-10T09:00:48;100952.00;;;18.90
65765;BMP180;52915;53.718;19.946;2023-05-10T09:06:05;100941.40;;;19.22
65765;BMP180;52915;53.718;19.946;2023-05-10T09:11:34;100946.40;;;19.40
65765;BMP180;52915;53.718;19.946;2023-05-10T09:16:56;100957.60;;;19.40
65765;BMP180;52915;53.718;19.946;2023-05-10T09:22:26;100956.40;;;19.40
65765;BMP180;52915;53.718;19.946;2023-05-10T09:27:39;100949.40;;;19.40
65765;BMP180;52915;53.718;19.946;2023-05-10T09:44:36;100940.20;;;20.60
65765;BMP180;52915;53.718;19.946;2023-05-10T09:50:09;100943.00;;;20.60
65765;BMP180;52915;53.718;19.946;2023-05-10T10:01:41;100936.80;;;20.30
65765;BMP180;52915;53.718;19.946;2023-05-10T10:07:10;100937.00;;;20.30
65765;BMP180;52915;53.718;19.946;2023-05-10T10:12:41;100934.40;;;20.14
65765;BMP180;52915;53.718;19.946;2023-05-10T10:17:50;100915.80;;;20.10
65765;BMP180;52915;53.718;19.946;2023-05-10T10:22:56;100911.40;;;20.00
65765;BMP180;52915;53.718;19.946;2023-05-10T10:28:40;100902.20;;;20.10
65765;BMP180;52915;53.718;19.946;2023-05-10T10:40:27;100892.60;;;20.30
65765;BMP180;52915;53.718;19.946;2023-05-10T10:57:57;100882.00;;;20.70
65765;BMP180;52915;53.718;19.946;2023-05-10T11:03:33;100863.80;;;20.80
65765;BMP180;52915;53.718;19.946;2023-05-10T11:08:46;100869.00;;;20.80
65765;BMP180;52915;53.718;19.946;2023-05-10T11:14:09;100866.00;;;21.00
65765;BMP180;52915;53.718;19.946;2023-05-10T11:20:13;100856.40;;;21.10
65765;BMP180;52915;53.718;19.946;2023-05-10T11:25:18;100854.20;;;21.20
65765;BMP180;52915;53.718;19.946;2023-05-10T11:31:14;100856.00;;;21.30
65765;BMP180;52915;53.718;19.946;2023-05-10T11:36:58;100835.20;;;21.18
65765;BMP180;52915;53.718;19.946;2023-05-10T11:49:24;100841.00;;;21.40
65765;BMP180;52915;53.718;19.946;2023-05-10T11:54:29;100826.40;;;21.30
65765;BMP180;52915;53.718;19.946;2023-05-10T11:59:34;100841.40;;;21.50
65765;BMP180;52915;53.718;19.946;2023-05-10T12:18:40;100835.20;;;21.50
65765;BMP180;52915;53.718;19.946;2023-05-10T12:24:10;100830.20;;;21.60
65765;BMP180;52915;53.718;19.946;2023-05-10T12:29:23;100832.00;;;21.66
65765;BMP180;52915;53.718;19.946;2023-05-10T12:34:34;100832.60;;;21.60
65765;BMP180;52915;53.718;19.946;2023-05-10T12:39:41;100830.80;;;21.50
65765;BMP180;52915;53.718;19.946;2023-05-10T12:44:45;100831.40;;;21.86
65765;BMP180;52915;53.718;19.946;2023-05-10T12:50:07;100827.00;;;21.90
65765;BMP180;52915;53.718;19.946;2023-05-10T13:01:31;100829.20;;;22.00
65765;BMP180;52915;53.718;19.946;2023-05-10T13:06:35;100823.20;;;21.70
65765;BMP180;52915;53.718;19.946;2023-05-10T13:11:39;100822.40;;;21.72
65765;BMP180;52915;53.718;19.946;2023-05-10T13:16:43;100821.60;;;21.70
65765;BMP180;52915;53.718;19.946;2023-05-10T13:21:47;100819.20;;;21.72
65765;BMP180;52915;53.718;19.946;2023-05-10T13:26:51;100811.00;;;21.90
65765;BMP180;52915;53.718;19.946;2023-05-10T13:31:55;100812.00;;;22.10
65765;BMP180;52915;53.718;19.946;2023-05-10T13:43:58;100808.80;;;21.90
65765;BMP180;52915;53.718;19.946;2023-05-10T13:49:02;100796.40;;;21.80
65765;BMP180;52915;53.718;19.946;2023-05-10T13:54:06;100802.40;;;21.98
65765;BMP180;52915;53.718;19.946;2023-05-10T13:59:10;100795.80;;;21.90
65765;BMP180;52915;53.718;19.946;2023-05-10T14:46:50;100802.20;;;21.70
65765;BMP180;52915;53.718;19.946;2023-05-10T14:56:16;100780.60;;;21.76
65765;BMP180;52915;53.718;19.946;2023-05-10T15:01:20;100774.80;;;21.88
65765;BMP180;52915;53.718;19.946;2023-05-10T15:06:33;100764.20;;;23.18
65765;BMP180;52915;53.718;19.946;2023-05-10T15:11:39;100766.00;;;25.76
65765;BMP180;52915;53.718;19.946;2023-05-10T15:31:28;100777.40;;;28.30
65765;BMP180;52915;53.718;19.946;2023-05-10T15:37:06;100778.40;;;28.20
65765;BMP180;52915;53.718;19.946;2023-05-10T15:42:10;100781.60;;;27.96
65765;BMP180;52915;53.718;19.946;2023-05-10T15:47:20;100779.00;;;27.70
65765;BMP180;52915;53.718;19.946;2023-05-10T15:52:24;100778.60;;;27.50
65765;BMP180;52915;53.718;19.946;2023-05-10T15:57:34;100780.00;;;27.20
65765;BMP180;52915;53.718;19.946;2023-05-10T16:02:40;100768.80;;;27.00
65765;BMP180;52915;53.718;19.946;2023-05-10T16:07:44;100777.40;;;26.90
65765;BMP180;52915;53.718;19.946;2023-05-10T16:12:49;100780.20;;;26.60
65765;BMP180;52915;53.718;19.946;2023-05-10T16:17:53;100778.00;;;26.20
65765;BMP180;52915;53.718;19.946;2023-05-10T16:23:03;100778.80;;;25.78
65765;BMP180;52915;53.718;19.946;2023-05-10T16:28:08;100779.00;;;25.50
65765;BMP180;52915;53.718;19.946;2023-05-10T16:33:13;100779.00;;;25.20
65765;BMP180;52915;53.718;19.946;2023-05-10T16:38:17;100781.80;;;24.60
65765;BMP180;52915;53.718;19.946;2023-05-10T16:43:22;100785.40;;;24.20
65765;BMP180;52915;53.718;19.946;2023-05-10T16:48:31;100787.40;;;23.80
65765;BMP180;52915;53.718;19.946;2023-05-10T16:53:35;100788.80;;;23.50
65765;BMP180;52915;53.718;19.946;2023-05-10T16:59:06;100788.60;;;23.20
65765;BMP180;52915;53.718;19.946;2023-05-10T17:04:12;100794.80;;;22.84
65765;BMP180;52915;53.718;19.946;2023-05-10T17:09:17;100797.40;;;22.60
65765;BMP180;52915;53.718;19.946;2023-05-10T17:14:23;100796.80;;;22.20
65765;BMP180;52915;53.718;19.946;2023-05-10T17:19:27;100808.40;;;21.36
65765;BMP180;52915;53.718;19.946;2023-05-10T17:24:32;100815.40;;;20.20
65765;BMP180;52915;53.718;19.946;2023-05-10T17:29:36;100818.60;;;19.46
65765;BMP180;52915;53.718;19.946;2023-05-10T17:35:32;100824.20;;;18.90
65765;BMP180;52915;53.718;19.946;2023-05-10T17:40:39;100830.80;;;18.50
65765;BMP180;52915;53.718;19.946;2023-05-10T17:53:19;100840.60;;;17.80
65765;BMP180;52915;53.718;19.946;2023-05-10T17:58:27;100846.80;;;17.60
65765;BMP180;52915;53.718;19.946;2023-05-10T18:03:33;100851.40;;;17.40
65765;BMP180;52915;53.718;19.946;2023-05-10T18:09:08;100859.00;;;17.10
65765;BMP180;52915;53.718;19.946;2023-05-10T18:14:40;100861.00;;;16.90
65765;BMP180;52915;53.718;19.946;2023-05-10T18:19:44;100859.40;;;16.70
65765;BMP180;52915;53.718;19.946;2023-05-10T18:25:14;100858.00;;;16.50
65765;BMP180;52915;53.718;19.946;2023-05-10T18:31:07;100862.00;;;16.30
65765;BMP180;52915;53.718;19.946;2023-05-10T18:36:37;100871.20;;;16.10
65765;BMP180;52915;53.718;19.946;2023-05-10T18:41:41;100877.00;;;15.80
65765;BMP180;52915;53.718;19.946;2023-05-10T18:47:37;100885.20;;;15.70
65765;BMP180;52915;53.718;19.946;2023-05-10T18:52:42;100889.80;;;15.50
65765;BMP180;52915;53.718;19.946;2023-05-10T19:05:06;100897.40;;;15.10
65765;BMP180;52915;53.718;19.946;2023-05-10T19:10:12;100898.20;;;14.90
65765;BMP180;52915;53.718;19.946;2023-05-10T19:15:16;100898.60;;;14.68
65765;BMP180;52915;53.718;19.946;2023-05-10T19:20:49;100903.40;;;14.50
65765;BMP180;52915;53.718;19.946;2023-05-10T19:25:56;100900.20;;;14.30
65765;BMP180;52915;53.718;19.946;2023-05-10T19:31:39;100898.60;;;14.20
65765;BMP180;52915;53.718;19.946;2023-05-10T19:37:04;100893.20;;;13.98
65765;BMP180;52915;53.718;19.946;2023-05-10T19:42:35;100904.40;;;13.80
65765;BMP180;52915;53.718;19.946;2023-05-10T19:47:39;100912.20;;;13.60
65765;BMP180;52915;53.718;19.946;2023-05-10T19:53:10;100910.40;;;13.48
65765;BMP180;52915;53.718;19.946;2023-05-10T19:58:39;100918.00;;;13.30
65765;BMP180;52915;53.718;19.946;2023-05-10T20:03:51;100926.60;;;13.10
65765;BMP180;52915;53.718;19.946;2023-05-10T20:09:29;100928.40;;;12.90
65765;BMP180;52915;53.718;19.946;2023-05-10T20:14:40;100929.40;;;12.70
65765;BMP180;52915;53.718;19.946;2023-05-10T20:19:51;100926.60;;;12.60
65765;BMP180;52915;53.718;19.946;2023-05-10T20:31:57;100931.20;;;12.20
65765;BMP180;52915;53.718;19.946;2023-05-10T20:37:01;100930.60;;;12.02
65765;BMP180;52915;53.718;19.946;2023-05-10T20:48:37;100932.20;;;11.60
65765;BMP180;52915;53.718;19.946;2023-05-10T20:53:41;100931.80;;;11.50
65765;BMP180;52915;53.718;19.946;2023-05-10T21:05:56;100934.80;;;11.10
65765;BMP180;52915;53.718;19.946;2023-05-10T21:11:01;100938.40;;;11.00
65765;BMP180;52915;53.718;19.946;2023-05-10T21:16:08;100938.40;;;10.90
65765;BMP180;52915;53.718;19.946;2023-05-10T21:29:26;100938.80;;;10.60
65765;BMP180;52915;53.718;19.946;2023-05-10T21:41:50;100944.40;;;10.24
65765;BMP180;52915;53.718;19.946;2023-05-10T21:54:40;100946.20;;;10.00
65765;BMP180;52915;53.718;19.946;2023-05-10T22:00:52;100945.80;;;9.72
65765;BMP180;52915;53.718;19.946;2023-05-10T22:28:02;100954.00;;;9.10
65765;BMP180;52915;53.718;19.946;2023-05-10T22:33:06;100955.80;;;9.08
65765;BMP180;52915;53.718;19.946;2023-05-10T22:45:18;100964.80;;;8.90
65765;BMP180;52915;53.718;19.946;2023-05-10T22:50:22;100965.20;;;8.80
65765;BMP180;52915;53.718;19.946;2023-05-10T23:10:47;100963.60;;;8.50
65765;BMP180;52915;53.718;19.946;2023-05-10T23:15:51;100964.80;;;8.40
65765;BMP180;52915;53.718;19.946;2023-05-10T23:20:54;100961.00;;;8.32
65765;BMP180;52915;53.718;19.946;2023-05-10T23:25:59;100965.60;;;8.30
65765;BMP180;52915;53.718;19.946;2023-05-10T23:44:37;100969.80;;;8.10
65765;BMP180;52915;53.718;19.946;2023-05-10T23:53:58;100980.20;;;7.98
65765;BMP180;52915;53.718;19.946;2023-05-10T23:59:27;100977.80;;;7.90
